Time;durP1;ratioP1;P1;durP2;ratioP2;P2;SDS_P1;SDS_P2;PMS_P1;PMS_P2;Temp;Humidity;BMP_temperature;BMP_pressure;BME280_temperature;BME280_humidity;BME280_pressure;Samples;Min_cycle;Max_cycle;Signal;HPM_P1;HPM_P2
2021/12/20 00:02:08;;;;;;;20.75;4.30;;;6.50;99.90;;;;;;5150013;27;20063;-60
2021/12/20 00:04:33;;;;;;;15.05;3.13;;;6.50;99.90;;;;;;5133271;27;20050;-64
2021/12/20 00:06:59;;;;;;;20.25;4.15;;;6.50;99.90;;;;;;5112282;27;20039;-64
2021/12/20 00:09:25;;;;;;;18.83;3.92;;;6.40;99.90;;;;;;5125273;27;20173;-61
2021/12/20 00:11:51;;;;;;;22.30;4.00;;;6.40;99.90;;;;;;5098731;27;20081;-61
2021/12/20 00:14:16;;;;;;;22.63;4.63;;;6.40;99.90;;;;;;5132529;27;20047;-61
2021/12/20 00:16:42;;;;;;;23.13;4.03;;;6.40;99.90;;;;;;5133644;27;20112;-61
2021/12/20 00:19:10;;;;;;;19.65;4.70;;;6.40;99.90;;;;;;5079443;28;20623;-60
2021/12/20 00:21:37;;;;;;;16.83;3.78;;;6.40;99.90;;;;;;5094806;28;20043;-60
2021/12/20 00:24:04;;;;;;;17.67;3.90;;;6.40;99.90;;;;;;5140697;27;20484;-61
2021/12/20 00:26:29;;;;;;;19.98;4.65;;;6.40;99.90;;;;;;5114136;27;20050;-60
2021/12/20 00:28:55;;;;;;;20.20;3.78;;;6.40;99.90;;;;;;5121260;27;20473;-61
2021/12/20 00:31:21;;;;;;;22.58;4.38;;;6.30;99.90;;;;;;5128121;27;20599;-61
2021/12/20 00:33:46;;;;;;;17.77;3.35;;;6.30;99.90;;;;;;5119877;27;20055;-61
2021/12/20 00:36:20;;;;;;;19.25;3.75;;;6.40;99.90;;;;;;5132527;27;20051;-61
2021/12/20 00:41:31;;;;;;;;;;;6.40;99.90;;;;;;5113239;28;20048;-61
2021/12/20 00:43:57;;;;;;;17.95;3.83;;;6.30;99.90;;;;;;5099897;27;19979;-61
2021/12/20 00:46:23;;;;;;;21.20;4.13;;;6.30;99.90;;;;;;5132218;27;20058;-61
2021/12/20 00:48:48;;;;;;;22.52;5.00;;;6.30;99.90;;;;;;5130919;27;20046;-61
2021/12/20 00:51:14;;;;;;;17.73;3.70;;;6.30;99.90;;;;;;5114142;27;20054;-61
2021/12/20 00:53:40;;;;;;;15.20;2.88;;;6.30;99.90;;;;;;5132739;27;20099;-61
2021/12/20 00:56:05;;;;;;;14.05;3.40;;;6.10;99.90;;;;;;5132138;27;20492;-65
2021/12/20 00:58:31;;;;;;;13.07;3.83;;;6.20;99.90;;;;;;5132748;27;20057;-61
2021/12/20 01:00:58;;;;;;;10.70;2.47;;;6.20;99.90;;;;;;5123673;27;20039;-61
2021/12/20 01:03:25;;;;;;;16.77;3.33;;;6.20;99.90;;;;;;5111662;28;20155;-60
2021/12/20 01:05:51;;;;;;;17.95;2.85;;;6.20;99.90;;;;;;5107100;27;20117;-60
2021/12/20 01:08:19;;;;;;;13.43;3.28;;;6.10;99.90;;;;;;5131867;27;20051;-61
2021/12/20 01:10:50;;;;;;;13.27;2.45;;;6.10;99.90;;;;;;5124276;27;20065;-60
2021/12/20 01:13:20;;;;;;;13.18;2.83;;;6.10;99.90;;;;;;5111798;28;20050;-60
2021/12/20 01:15:49;;;;;;;12.00;2.80;;;6.10;99.90;;;;;;5121271;27;20043;-61
2021/12/20 01:18:16;;;;;;;15.05;2.60;;;6.10;99.90;;;;;;5131362;27;20083;-62
2021/12/20 01:20:42;;;;;;;10.32;2.60;;;6.10;99.90;;;;;;5128912;27;20046;-61
2021/12/20 01:23:09;;;;;;;12.82;2.80;;;6.10;99.90;;;;;;5093879;28;20055;-60
2021/12/20 01:25:35;;;;;;;14.18;2.95;;;6.10;99.90;;;;;;5111305;28;20529;-60
2021/12/20 01:28:02;;;;;;;7.43;2.13;;;6.10;99.90;;;;;;5125102;27;20047;-61
2021/12/20 01:30:28;;;;;;;12.13;2.60;;;6.10;99.90;;;;;;5113432;27;20369;-61
2021/12/20 01:32:54;;;;;;;18.08;2.60;;;6.10;99.90;;;;;;5114187;27;20080;-61
2021/12/20 01:35:24;;;;;;;9.73;2.20;;;6.10;99.90;;;;;;5110579;28;20077;-60
2021/12/20 01:37:51;;;;;;;10.93;2.60;;;6.10;99.90;;;;;;5119010;27;20043;-60
2021/12/20 01:40:17;;;;;;;12.73;3.03;;;6.10;99.90;;;;;;5130716;27;20381;-60
2021/12/20 01:42:44;;;;;;;16.30;2.72;;;6.10;99.90;;;;;;5111741;27;20511;-60
2021/12/20 01:45:17;;;;;;;15.55;2.75;;;6.00;99.90;;;;;;5131821;27;20043;-61
2021/12/20 01:47:46;;;;;;;11.40;2.60;;;6.00;99.90;;;;;;5131897;27;20043;-60
2021/12/20 01:52:43;;;;;;;21.42;3.00;;;5.90;99.90;;;;;;5129757;27;20051;-60
2021/12/20 01:55:12;;;;;;;13.27;2.35;;;5.90;99.90;;;;;;5131714;27;20070;-60
2021/12/20 01:57:38;;;;;;;11.90;2.35;;;5.90;99.90;;;;;;5131314;27;20047;-61
2021/12/20 02:00:10;;;;;;;11.52;2.47;;;5.80;99.90;;;;;;5131255;27;20111;-61
2021/12/20 02:02:37;;;;;;;13.70;3.47;;;5.80;99.90;;;;;;5110512;27;20227;-61
2021/12/20 02:05:15;;;;;;;14.35;2.35;;;5.90;99.90;;;;;;5130700;27;20142;-61
2021/12/20 02:10:22;;;;;;;14.35;3.03;;;5.70;99.90;;;;;;5128842;27;20077;-62
2021/12/20 02:12:48;;;;;;;12.77;2.72;;;5.70;99.90;;;;;;5131383;27;20437;-63
2021/12/20 02:15:14;;;;;;;9.68;2.40;;;5.60;99.90;;;;;;5127944;27;20489;-61
2021/12/20 02:17:40;;;;;;;12.02;2.55;;;5.70;99.90;;;;;;5110470;28;20180;-62
2021/12/20 02:20:06;;;;;;;11.98;2.50;;;5.60;99.90;;;;;;5122313;27;20463;-62
2021/12/20 02:22:32;;;;;;;11.63;2.35;;;5.60;99.90;;;;;;5129014;27;20061;-61
2021/12/20 02:24:58;;;;;;;11.75;2.22;;;5.50;99.90;;;;;;5129004;27;20047;-61
2021/12/20 02:27:24;;;;;;;11.38;2.42;;;5.50;99.90;;;;;;5112520;28;20401;-61
2021/12/20 02:37:56;;;;;;;11.68;2.53;;;5.40;99.90;;;;;;5110901;28;20048;-62
2021/12/20 02:40:22;;;;;;;10.10;2.30;;;5.40;99.90;;;;;;5125843;28;20047;-65
2021/12/20 02:42:51;;;;;;;10.15;2.50;;;5.40;99.90;;;;;;5113000;28;20047;-61
2021/12/20 02:45:17;;;;;;;10.68;2.25;;;5.40;99.90;;;;;;5125090;28;20141;-62
2021/12/20 02:47:47;;;;;;;11.95;2.47;;;5.40;99.90;;;;;;5110568;28;20500;-61
2021/12/20 02:50:14;;;;;;;11.43;2.83;;;5.40;99.90;;;;;;5119950;28;20043;-61
2021/12/20 02:52:40;;;;;;;13.77;2.25;;;5.40;99.90;;;;;;5130314;28;20066;-62
2021/12/20 02:55:08;;;;;;;11.52;1.90;;;5.40;99.90;;;;;;5129371;28;20270;-62
2021/12/20 02:57:38;;;;;;;9.40;2.63;;;5.40;99.90;;;;;;5129788;28;20035;-61
2021/12/20 03:00:10;;;;;;;12.40;2.10;;;5.40;99.90;;;;;;5110729;28;20440;-61
2021/12/20 03:02:36;;;;;;;11.75;2.50;;;5.40;99.90;;;;;;5111814;28;20066;-62
2021/12/20 03:05:03;;;;;;;11.65;2.55;;;5.40;99.90;;;;;;5112605;28;20110;-61
2021/12/20 03:07:31;;;;;;;18.65;2.55;;;5.50;99.90;;;;;;5114728;28;20043;-63
2021/12/20 03:10:02;;;;;;;13.27;2.35;;;5.40;99.90;;;;;;5110333;28;20058;-62
2021/12/20 03:12:30;;;;;;;8.65;2.15;;;5.40;99.90;;;;;;5110310;28;20047;-61
2021/12/20 03:15:05;;;;;;;11.55;2.45;;;5.40;99.90;;;;;;5130935;28;20087;-62
2021/12/20 03:17:31;;;;;;;11.88;2.20;;;5.40;99.90;;;;;;5109735;27;20047;-61
2021/12/20 03:19:57;;;;;;;11.23;2.10;;;5.30;99.90;;;;;;5099606;27;20054;-62
2021/12/20 03:22:22;;;;;;;10.07;2.13;;;5.30;99.90;;;;;;5116002;27;20071;-62
2021/12/20 03:24:49;;;;;;;8.80;2.30;;;5.30;99.90;;;;;;5133892;27;20046;-62
2021/12/20 03:27:15;;;;;;;9.65;2.20;;;5.30;99.90;;;;;;5105385;28;20055;-63
2021/12/20 03:29:40;;;;;;;7.30;1.90;;;5.20;99.90;;;;;;5112564;28;20130;-62
2021/12/20 03:32:07;;;;;;;12.23;2.13;;;5.20;99.90;;;;;;5112777;27;20122;-62
2021/12/20 03:34:32;;;;;;;10.73;2.78;;;5.20;99.90;;;;;;5115399;27;20055;-61
2021/12/20 03:36:58;;;;;;;11.80;2.20;;;5.10;99.90;;;;;;5132251;27;20506;-60
2021/12/20 03:39:24;;;;;;;11.20;2.15;;;5.10;99.90;;;;;;5116300;27;20482;-61
2021/12/20 03:41:50;;;;;;;12.57;2.72;;;5.00;99.90;;;;;;5115202;27;20054;-60
2021/12/20 03:44:16;;;;;;;10.95;2.22;;;5.00;99.90;;;;;;5115305;27;20480;-61
2021/12/20 03:46:42;;;;;;;11.48;2.22;;;4.90;99.90;;;;;;5133580;27;20049;-61
2021/12/20 03:49:08;;;;;;;9.75;2.40;;;4.90;99.90;;;;;;5097857;28;20052;-61
2021/12/20 03:51:35;;;;;;;11.15;2.60;;;4.90;99.90;;;;;;5144531;27;20051;-61
2021/12/20 03:54:01;;;;;;;14.45;2.58;;;4.80;99.90;;;;;;5133539;27;20500;-61
2021/12/20 03:56:27;;;;;;;17.33;2.95;;;4.80;99.90;;;;;;5134082;27;20086;-61
2021/12/20 03:58:52;;;;;;;16.63;2.65;;;4.70;99.90;;;;;;5122429;27;20054;-62
2021/12/20 04:01:18;;;;;;;10.13;2.25;;;4.60;99.90;;;;;;5123887;27;20093;-62
2021/12/20 04:03:44;;;;;;;9.68;2.20;;;4.60;99.90;;;;;;5133020;27;20115;-61
2021/12/20 04:06:12;;;;;;;8.68;2.10;;;4.50;99.90;;;;;;5133927;27;20045;-60
2021/12/20 04:08:39;;;;;;;10.27;2.70;;;4.50;99.90;;;;;;5128975;27;20404;-61
2021/12/20 04:11:05;;;;;;;10.15;2.15;;;4.40;99.90;;;;;;5117240;27;20039;-61
2021/12/20 04:13:31;;;;;;;13.38;2.63;;;4.40;99.90;;;;;;5133920;27;20051;-60
2021/12/20 04:15:57;;;;;;;13.27;2.53;;;4.30;99.90;;;;;;5114405;27;20071;-61
2021/12/20 04:18:24;;;;;;;20.05;3.10;;;4.20;99.90;;;;;;5115111;27;20496;-60
2021/12/20 04:20:50;;;;;;;10.32;2.20;;;4.20;99.90;;;;;;5114651;27;20044;-60
2021/12/20 04:23:16;;;;;;;11.73;2.63;;;4.20;99.90;;;;;;5112171;27;20046;-60
2021/12/20 04:25:42;;;;;;;11.05;2.75;;;4.20;99.90;;;;;;5132727;27;20050;-61
2021/12/20 04:28:08;;;;;;;9.73;2.70;;;4.10;99.90;;;;;;5133098;27;20047;-62
2021/12/20 04:30:34;;;;;;;11.75;2.40;;;4.10;99.90;;;;;;5130957;27;20051;-65
2021/12/20 04:33:00;;;;;;;13.00;2.15;;;4.10;99.90;;;;;;5115042;27;20047;-61
2021/12/20 04:35:26;;;;;;;10.30;2.30;;;4.10;99.90;;;;;;5132784;27;20054;-61
2021/12/20 04:37:53;;;;;;;10.25;2.58;;;4.00;99.90;;;;;;5132782;27;20047;-60
2021/12/20 04:40:22;;;;;;;12.05;2.25;;;4.00;99.90;;;;;;5128297;27;20055;-61
2021/12/20 04:42:50;;;;;;;10.07;2.28;;;4.00;99.90;;;;;;5094443;27;20043;-61
2021/12/20 04:45:16;;;;;;;9.68;2.08;;;3.90;99.90;;;;;;5131950;27;20046;-61
2021/12/20 04:47:42;;;;;;;8.52;2.03;;;3.90;99.90;;;;;;5113728;27;20480;-61
2021/12/20 04:50:09;;;;;;;9.95;2.42;;;3.80;99.90;;;;;;5132451;27;20442;-62
2021/12/20 04:52:36;;;;;;;12.73;2.67;;;3.80;99.90;;;;;;5116788;27;20142;-61
2021/12/20 04:55:04;;;;;;;10.73;2.00;;;3.80;99.90;;;;;;5112040;28;20049;-62
2021/12/20 04:57:30;;;;;;;14.15;2.38;;;3.80;99.90;;;;;;5125795;27;20433;-60
2021/12/20 04:59:56;;;;;;;14.45;3.13;;;3.80;99.90;;;;;;5132407;27;20130;-61
2021/12/20 05:02:21;;;;;;;12.48;3.10;;;3.80;99.90;;;;;;5132436;27;20051;-61
2021/12/20 05:04:47;;;;;;;12.35;2.85;;;3.70;99.90;;;;;;5093638;28;20098;-61
2021/12/20 05:07:13;;;;;;;8.45;2.10;;;3.80;99.90;;;;;;5099724;27;20422;-60
2021/12/20 05:09:40;;;;;;;12.02;2.40;;;3.80;99.90;;;;;;5097557;27;20043;-62
2021/12/20 05:12:14;;;;;;;7.63;2.30;;;3.80;99.90;;;;;;5106615;28;20043;-60
2021/12/20 05:14:42;;;;;;;15.40;2.55;;;3.80;99.90;;;;;;5111943;28;20100;-64
2021/12/20 05:17:10;;;;;;;12.73;2.83;;;3.80;99.90;;;;;;5113791;27;20698;-60
2021/12/20 05:19:36;;;;;;;12.02;2.55;;;3.80;99.90;;;;;;5132324;27;20047;-60
2021/12/20 05:22:02;;;;;;;12.98;2.38;;;3.70;99.90;;;;;;5129946;27;20122;-60
2021/12/20 05:24:27;;;;;;;15.43;2.78;;;3.70;99.90;;;;;;5111712;28;20071;-60
2021/12/20 05:26:53;;;;;;;7.90;2.00;;;3.70;99.90;;;;;;5111262;28;20043;-62
2021/12/20 05:29:19;;;;;;;11.77;3.08;;;3.60;99.90;;;;;;5110117;27;20043;-60
2021/12/20 05:31:44;;;;;;;9.93;2.33;;;3.60;99.90;;;;;;5131716;27;20167;-64
2021/12/20 05:34:10;;;;;;;10.48;2.45;;;3.50;99.90;;;;;;5129802;27;20097;-61
2021/12/20 05:36:36;;;;;;;13.13;2.55;;;3.50;99.90;;;;;;5148128;27;20101;-61
2021/12/20 05:39:03;;;;;;;11.63;2.42;;;3.40;99.90;;;;;;5130528;27;20047;-61
2021/12/20 05:41:29;;;;;;;9.55;2.45;;;3.40;99.90;;;;;;5096178;27;20068;-60
2021/12/20 05:43:55;;;;;;;14.05;3.13;;;3.50;99.90;;;;;;5094549;27;20408;-60
2021/12/20 05:46:20;;;;;;;16.75;3.70;;;3.30;99.90;;;;;;5131469;27;20066;-62
2021/12/20 05:48:46;;;;;;;14.10;2.63;;;3.30;99.90;;;;;;5131427;27;20050;-64
2021/12/20 05:51:12;;;;;;;10.35;2.97;;;3.30;99.90;;;;;;5131268;27;20061;-61
2021/12/20 05:53:38;;;;;;;12.60;2.35;;;3.30;99.90;;;;;;5129770;27;20047;-60
2021/12/20 05:56:04;;;;;;;12.00;2.65;;;3.20;99.90;;;;;;5130603;27;20043;-59
2021/12/20 05:58:30;;;;;;;15.20;2.85;;;3.20;99.90;;;;;;5110335;27;20031;-60
2021/12/20 06:00:56;;;;;;;9.25;2.47;;;3.30;99.90;;;;;;5096403;27;20093;-61
2021/12/20 06:03:21;;;;;;;14.07;2.33;;;3.20;99.90;;;;;;5076126;28;20109;-60
2021/12/20 06:05:47;;;;;;;8.80;2.35;;;3.10;99.90;;;;;;5125991;27;20047;-63
2021/12/20 06:08:13;;;;;;;11.77;2.47;;;3.40;99.90;;;;;;5112739;27;20047;-60
2021/12/20 06:10:39;;;;;;;7.82;2.22;;;3.10;99.90;;;;;;5130348;27;20134;-59
2021/12/20 06:13:06;;;;;;;10.45;3.03;;;3.00;99.90;;;;;;5130639;27;20564;-60
2021/12/20 06:15:31;;;;;;;9.68;2.58;;;3.00;99.90;;;;;;5104284;28;20070;-62
2021/12/20 06:17:58;;;;;;;7.65;2.30;;;3.00;99.90;;;;;;5110365;28;20473;-61
2021/12/20 06:20:25;;;;;;;13.07;3.10;;;3.00;99.90;;;;;;5097953;27;20514;-60
2021/12/20 06:22:51;;;;;;;15.07;2.47;;;2.90;99.90;;;;;;5131032;27;20043;-64
2021/12/20 06:25:18;;;;;;;8.93;2.30;;;2.80;99.90;;;;;;5111269;27;20089;-60
2021/12/20 06:27:44;;;;;;;15.40;3.28;;;2.90;99.90;;;;;;5092922;28;20080;-61
2021/12/20 06:30:11;;;;;;;13.52;3.17;;;2.90;99.90;;;;;;5076578;28;20054;-60
2021/12/20 06:32:42;;;;;;;9.68;3.03;;;2.90;99.90;;;;;;5131140;27;20047;-61
2021/12/20 06:35:08;;;;;;;11.48;2.42;;;2.80;99.90;;;;;;5130576;27;20494;-60
2021/12/20 06:37:34;;;;;;;10.23;2.50;;;2.80;99.90;;;;;;5110882;28;20051;-60
2021/12/20 06:40:01;;;;;;;10.23;2.88;;;2.80;99.90;;;;;;5130722;28;20066;-58
2021/12/20 06:42:27;;;;;;;8.70;3.00;;;2.80;99.90;;;;;;5130459;27;20534;-60
2021/12/20 06:44:53;;;;;;;10.70;2.65;;;2.80;99.90;;;;;;5130916;28;20039;-63
2021/12/20 06:47:19;;;;;;;12.57;2.92;;;2.80;99.90;;;;;;5120281;28;20148;-59
2021/12/20 06:49:45;;;;;;;8.68;2.53;;;2.70;99.90;;;;;;5121919;27;20043;-59
2021/12/20 06:52:12;;;;;;;13.73;3.28;;;2.70;99.90;;;;;;5098729;27;20037;-59
2021/12/20 06:54:37;;;;;;;10.52;2.65;;;2.70;99.90;;;;;;5135141;27;20088;-61
2021/12/20 06:57:04;;;;;;;13.05;2.75;;;2.70;99.90;;;;;;5131672;27;20047;-61
2021/12/20 06:59:29;;;;;;;16.10;2.60;;;2.60;99.90;;;;;;5114321;27;20524;-61
2021/12/20 07:01:55;;;;;;;15.27;2.80;;;2.70;99.90;;;;;;5111507;27;20121;-63
2021/12/20 07:04:21;;;;;;;13.55;3.03;;;2.60;99.90;;;;;;5116810;27;20337;-60
2021/12/20 07:06:47;;;;;;;11.27;2.83;;;2.60;99.90;;;;;;5117052;27;20043;-61
2021/12/20 07:09:14;;;;;;;16.45;3.10;;;2.90;99.90;;;;;;5117785;27;20116;-60
2021/12/20 07:11:41;;;;;;;14.07;2.80;;;2.60;99.90;;;;;;5133086;27;20066;-60
2021/12/20 07:14:08;;;;;;;12.05;3.28;;;2.60;99.90;;;;;;5134369;27;20054;-60
2021/12/20 07:16:35;;;;;;;15.25;3.60;;;2.60;99.90;;;;;;5135132;27;20076;-61
2021/12/20 07:19:03;;;;;;;7.43;2.60;;;2.50;99.90;;;;;;5123959;27;20054;-61
2021/12/20 07:21:28;;;;;;;16.70;4.15;;;2.50;99.90;;;;;;5110116;27;20475;-61
2021/12/20 07:23:54;;;;;;;13.80;3.42;;;2.50;99.90;;;;;;5134771;27;20091;-61
2021/12/20 07:26:20;;;;;;;16.17;3.60;;;2.40;99.90;;;;;;5134416;27;20043;-61
2021/12/20 07:28:46;;;;;;;14.45;3.55;;;2.40;99.90;;;;;;5132759;27;20036;-61
2021/12/20 07:31:13;;;;;;;12.85;3.72;;;2.40;99.90;;;;;;5133980;27;20091;-60
2021/12/20 07:33:40;;;;;;;13.82;3.28;;;2.20;99.90;;;;;;5134333;27;20115;-62
2021/12/20 07:36:06;;;;;;;10.02;3.45;;;2.30;99.90;;;;;;5096943;28;20064;-61
2021/12/20 07:38:33;;;;;;;13.60;3.45;;;2.30;99.90;;;;;;5091165;28;20036;-61
2021/12/20 07:41:00;;;;;;;15.00;3.42;;;2.40;99.90;;;;;;5084945;28;20043;-61
2021/12/20 07:43:26;;;;;;;14.63;3.22;;;2.30;99.90;;;;;;5093170;28;20424;-61
2021/12/20 07:45:52;;;;;;;15.18;3.67;;;2.30;99.90;;;;;;5092702;28;20051;-60
2021/12/20 07:48:20;;;;;;;10.15;2.63;;;2.30;99.90;;;;;;5092240;28;20055;-61
2021/12/20 07:50:47;;;;;;;14.32;3.40;;;2.40;99.90;;;;;;5088629;28;20051;-60
2021/12/20 07:53:13;;;;;;;11.05;3.38;;;2.30;99.90;;;;;;5091862;28;20063;-60
2021/12/20 07:55:39;;;;;;;9.98;3.08;;;2.30;99.90;;;;;;5092048;28;20059;-61
2021/12/20 07:58:05;;;;;;;18.65;4.07;;;2.30;99.90;;;;;;5071547;28;20049;-61
2021/12/20 08:00:31;;;;;;;15.45;3.88;;;2.20;99.90;;;;;;5083174;28;20048;-61
2021/12/20 08:02:57;;;;;;;11.70;3.35;;;2.50;99.90;;;;;;5074481;28;20036;-61
2021/12/20 08:05:25;;;;;;;19.23;3.42;;;2.30;99.90;;;;;;5092696;28;20069;-61
2021/12/20 08:07:51;;;;;;;16.90;3.65;;;2.40;99.90;;;;;;5074868;28;20413;-62
2021/12/20 08:10:18;;;;;;;11.30;3.35;;;2.30;99.90;;;;;;5090271;28;20050;-60
2021/12/20 08:12:45;;;;;;;12.60;3.55;;;2.30;99.90;;;;;;5091588;28;20087;-61
2021/12/20 08:15:11;;;;;;;10.93;3.63;;;2.30;99.90;;;;;;5092438;28;20523;-60
2021/12/20 08:17:38;;;;;;;15.20;3.97;;;2.30;99.90;;;;;;5092704;28;20078;-60
2021/12/20 08:20:06;;;;;;;17.83;3.55;;;2.30;99.90;;;;;;5086148;28;20404;-60
2021/12/20 08:22:32;;;;;;;23.20;4.25;;;2.30;99.90;;;;;;5088304;28;20048;-62
2021/12/20 08:24:58;;;;;;;10.02;3.15;;;2.30;99.90;;;;;;5091328;28;20538;-61
2021/12/20 08:27:24;;;;;;;13.25;3.20;;;2.30;99.90;;;;;;5072961;28;20041;-61
2021/12/20 08:29:49;;;;;;;15.90;4.53;;;2.30;99.90;;;;;;5072985;28;20444;-62
2021/12/20 08:32:15;;;;;;;15.43;3.65;;;2.30;99.90;;;;;;5084236;28;20131;-62
2021/12/20 08:34:41;;;;;;;17.95;4.20;;;2.40;99.90;;;;;;5091830;27;20051;-63
2021/12/20 08:37:07;;;;;;;15.65;3.97;;;2.40;99.90;;;;;;5133587;27;20046;-62
2021/12/20 08:39:33;;;;;;;12.80;3.08;;;2.40;99.90;;;;;;5114259;27;20047;-63
2021/12/20 08:42:00;;;;;;;15.02;3.15;;;2.40;99.90;;;;;;5133130;27;20039;-62
2021/12/20 08:44:26;;;;;;;15.80;3.95;;;2.40;99.90;;;;;;5132272;27;20041;-62
2021/12/20 08:46:53;;;;;;;13.45;4.00;;;2.40;99.90;;;;;;5132883;27;20126;-63
2021/12/20 08:49:19;;;;;;;15.48;3.58;;;2.40;99.90;;;;;;5094753;27;20050;-62
2021/12/20 08:51:45;;;;;;;13.50;3.78;;;2.40;99.90;;;;;;5130459;27;20134;-62
2021/12/20 08:54:12;;;;;;;8.85;3.22;;;2.50;99.90;;;;;;5115198;27;20051;-66
2021/12/20 08:56:38;;;;;;;16.08;4.30;;;2.50;99.90;;;;;;5126936;27;20085;-62
2021/12/20 08:59:05;;;;;;;17.10;3.92;;;2.60;99.90;;;;;;5130525;27;20078;-62
2021/12/20 09:01:31;;;;;;;17.30;3.72;;;2.50;99.90;;;;;;5123541;27;20082;-62
2021/12/20 09:03:57;;;;;;;15.60;4.00;;;2.50;99.90;;;;;;5098959;27;20507;-61
2021/12/20 09:06:25;;;;;;;16.92;3.97;;;2.60;99.90;;;;;;5096904;27;20043;-63
2021/12/20 09:08:54;;;;;;;16.40;5.15;;;2.60;99.90;;;;;;5124939;27;20587;-63
2021/12/20 09:11:26;;;;;;;13.10;4.00;;;2.70;99.90;;;;;;5105578;27;20042;-61
2021/12/20 09:13:52;;;;;;;15.00;5.30;;;2.70;99.90;;;;;;5110078;28;20066;-61
2021/12/20 09:16:18;;;;;;;12.68;4.82;;;2.70;99.90;;;;;;5094688;27;20050;-60
2021/12/20 09:18:44;;;;;;;13.40;4.93;;;2.80;99.90;;;;;;5123398;27;20050;-61
2021/12/20 09:21:10;;;;;;;18.90;8.15;;;2.80;99.90;;;;;;5129072;27;20409;-62
2021/12/20 09:23:40;;;;;;;21.55;10.40;;;2.90;99.90;;;;;;5150246;27;20885;-62
2021/12/20 09:26:06;;;;;;;17.70;10.32;;;2.90;99.90;;;;;;5127466;27;20047;-61
2021/12/20 09:28:33;;;;;;;21.05;12.52;;;2.90;99.90;;;;;;5101452;27;20047;-61
2021/12/20 09:30:59;;;;;;;28.38;12.38;;;3.00;99.90;;;;;;5120336;27;20043;-61
2021/12/20 09:33:25;;;;;;;23.33;9.60;;;3.00;99.90;;;;;;5120570;27;20138;-61
2021/12/20 09:35:53;;;;;;;15.30;8.70;;;3.30;99.90;;;;;;5125827;27;20147;-61
2021/12/20 09:38:19;;;;;;;21.35;9.30;;;3.20;99.90;;;;;;5103331;27;20091;-64
2021/12/20 09:43:33;;;;;;;24.13;7.65;;;3.20;99.90;;;;;;5116984;27;20059;-64
2021/12/20 09:45:59;;;;;;;27.05;7.53;;;3.30;99.90;;;;;;5138875;27;20062;-62
2021/12/20 09:48:26;;;;;;;28.23;7.25;;;3.40;99.90;;;;;;5092690;27;20050;-62
2021/12/20 09:50:52;;;;;;;25.05;8.00;;;3.40;99.90;;;;;;5107689;27;20047;-61
2021/12/20 09:53:18;;;;;;;20.65;7.82;;;3.50;99.90;;;;;;5123261;27;20118;-64
2021/12/20 09:55:49;;;;;;;23.70;6.32;;;3.60;99.90;;;;;;5110776;27;20048;-62
2021/12/20 09:58:15;;;;;;;27.33;6.50;;;3.70;99.90;;;;;;5128884;27;20054;-62
2021/12/20 10:00:41;;;;;;;32.38;7.03;;;3.70;99.90;;;;;;5099310;27;20049;-63
2021/12/20 10:03:08;;;;;;;24.83;6.45;;;3.90;99.90;;;;;;5123831;27;20070;-61
2021/12/20 10:05:35;;;;;;;30.25;7.38;;;3.90;99.90;;;;;;5110319;27;20040;-62
2021/12/20 10:08:12;;;;;;;21.40;5.80;;;4.00;99.90;;;;;;5118002;27;20079;-61
2021/12/20 10:10:47;;;;;;;29.38;5.55;;;4.10;99.90;;;;;;5126498;27;20041;-62
2021/12/20 10:13:24;;;;;;;33.35;6.75;;;4.10;99.90;;;;;;5112302;27;20054;-62
2021/12/20 10:15:51;;;;;;;26.02;5.60;;;4.20;99.90;;;;;;5131528;27;20039;-62
2021/12/20 10:18:17;;;;;;;19.65;5.18;;;4.30;99.90;;;;;;5094762;27;20691;-61
2021/12/20 10:20:52;;;;;;;29.15;6.38;;;4.30;99.90;;;;;;5123712;27;20106;-62
2021/12/20 10:23:22;;;;;;;32.40;6.63;;;4.40;99.90;;;;;;5103050;27;20481;-62
2021/12/20 10:25:52;;;;;;;27.42;5.20;;;4.40;99.90;;;;;;5110988;28;20051;-62
2021/12/20 10:28:23;;;;;;;28.33;6.15;;;4.50;99.90;;;;;;5109167;27;20043;-63
2021/12/20 10:30:57;;;;;;;26.75;5.32;;;4.50;99.90;;;;;;5130148;27;20503;-62
2021/12/20 10:33:24;;;;;;;35.28;5.78;;;4.60;99.90;;;;;;5095874;28;20062;-62
2021/12/20 10:35:56;;;;;;;23.17;5.57;;;4.70;99.90;;;;;;5077248;27;20119;-62
2021/12/20 10:38:43;;;;;;;19.65;5.53;;;4.70;99.90;;;;;;5131119;27;20118;-62
2021/12/20 10:41:18;;;;;;;25.17;5.43;;;4.70;99.90;;;;;;5117981;28;20036;-62
2021/12/20 10:43:51;;;;;;;23.52;5.50;;;4.80;99.90;;;;;;5139687;27;20101;-62
2021/12/20 10:46:32;;;;;;;25.45;6.05;;;4.80;99.90;;;;;;5131686;28;20035;-62
2021/12/20 10:48:59;;;;;;;25.92;6.00;;;4.80;99.90;;;;;;5129947;28;20135;-62
2021/12/20 10:51:28;;;;;;;57.95;7.80;;;4.90;99.90;;;;;;5109722;28;20067;-62
2021/12/20 10:54:00;;;;;;;76.32;9.52;;;4.90;99.90;;;;;;5112235;28;20043;-62
2021/12/20 10:56:32;;;;;;;42.35;6.68;;;5.00;99.90;;;;;;5110695;28;20043;-62
2021/12/20 10:58:59;;;;;;;28.10;5.82;;;5.00;99.90;;;;;;5101411;28;20472;-62
2021/12/20 11:04:15;;;;;;;22.23;4.88;;;5.10;99.90;;;;;;5116840;27;20716;-62
2021/12/20 11:09:31;;;;;;;18.20;4.50;;;5.10;99.90;;;;;;5119530;27;20050;-63
2021/12/20 11:12:00;;;;;;;18.52;5.35;;;5.20;99.90;;;;;;5120301;27;20055;-63
2021/12/20 11:14:29;;;;;;;27.38;5.65;;;5.20;99.90;;;;;;5092904;28;20055;-62
2021/12/20 11:16:57;;;;;;;21.20;5.15;;;5.30;99.90;;;;;;5096160;28;20047;-62
2021/12/20 11:19:24;;;;;;;23.67;4.50;;;5.30;99.90;;;;;;5117857;27;20055;-62
2021/12/20 11:21:54;;;;;;;27.42;5.43;;;5.40;99.90;;;;;;5119079;27;20055;-62
2021/12/20 11:24:24;;;;;;;17.95;4.15;;;5.40;99.90;;;;;;5110516;27;20497;-63
2021/12/20 11:26:51;;;;;;;17.13;4.28;;;5.40;99.90;;;;;;5133916;27;20048;-62
2021/12/20 11:29:18;;;;;;;21.63;4.15;;;5.50;99.90;;;;;;5115527;27;20062;-62
2021/12/20 11:31:45;;;;;;;25.33;3.88;;;5.50;99.90;;;;;;5126478;27;20047;-62
2021/12/20 11:34:12;;;;;;;19.40;4.70;;;5.50;99.90;;;;;;5126517;27;20078;-62
2021/12/20 11:36:39;;;;;;;13.15;2.92;;;5.60;99.90;;;;;;5099999;28;20051;-62
2021/12/20 11:39:06;;;;;;;9.85;2.58;;;5.60;99.90;;;;;;5120094;27;20126;-62
2021/12/20 11:41:33;;;;;;;9.07;2.42;;;5.60;99.90;;;;;;5132545;27;20047;-68
2021/12/20 11:44:01;;;;;;;14.55;3.33;;;5.80;99.90;;;;;;5131167;27;20058;-62
2021/12/20 11:47:04;;;;;;;8.25;2.80;;;5.60;99.90;;;;;;5135013;27;20046;-62
2021/12/20 11:49:31;;;;;;;17.27;3.50;;;5.70;99.90;;;;;;5127459;27;20045;-63
2021/12/20 11:51:57;;;;;;;14.75;2.80;;;5.70;99.90;;;;;;5130412;27;20762;-63
2021/12/20 11:54:35;;;;;;;12.80;2.50;;;5.80;99.90;;;;;;5112582;27;20058;-62
2021/12/20 11:57:01;;;;;;;15.77;3.90;;;5.70;99.90;;;;;;5124169;27;20177;-62
2021/12/20 11:59:46;;;;;;;13.27;3.13;;;5.80;99.90;;;;;;5127227;27;20126;-62
2021/12/20 12:02:25;;;;;;;13.55;3.30;;;5.80;99.90;;;;;;5104293;28;20054;-62
2021/12/20 12:04:55;;;;;;;10.77;2.33;;;5.80;99.90;;;;;;5100650;28;20055;-63
2021/12/20 12:07:23;;;;;;;10.27;2.63;;;5.90;99.90;;;;;;5129318;27;20081;-63
2021/12/20 12:10:08;;;;;;;7.47;2.40;;;5.90;99.90;;;;;;5131028;27;20058;-62
2021/12/20 12:12:45;;;;;;;;;;;6.00;99.90;;;;;;5122945;27;20446;-62
2021/12/20 12:15:20;;;;;;;14.27;2.92;;;6.00;99.90;;;;;;5101656;27;19931;-63
2021/12/20 12:17:58;;;;;;;13.52;3.60;;;6.10;99.90;;;;;;5130059;27;20431;-63
2021/12/20 12:20:53;;;;;;;16.63;4.45;;;6.20;99.90;;;;;;5129622;27;20126;-62
2021/12/20 12:23:24;;;;;;;6.22;1.65;;;6.20;99.90;;;;;;5111924;27;20039;-62
2021/12/20 12:25:57;;;;;;;8.75;1.98;;;6.30;99.90;;;;;;5133458;27;20488;-62
2021/12/20 12:28:48;;;;;;;10.75;2.17;;;6.30;99.90;;;;;;5126646;27;20078;-63
2021/12/20 12:31:14;;;;;;;10.23;2.50;;;6.30;99.90;;;;;;5104946;28;20134;-62
2021/12/20 12:33:40;;;;;;;14.50;2.92;;;6.30;99.90;;;;;;5129918;27;20122;-62
2021/12/20 12:36:22;;;;;;;13.25;2.08;;;6.30;99.90;;;;;;5131972;27;20091;-63
2021/12/20 12:38:58;;;;;;;9.82;2.58;;;6.30;99.90;;;;;;5129543;27;20055;-63
2021/12/20 12:41:29;;;;;;;8.18;2.58;;;6.30;99.90;;;;;;5130419;27;20081;-62
2021/12/20 12:44:02;;;;;;;13.63;2.53;;;6.40;99.90;;;;;;5140725;27;20078;-63
2021/12/20 12:46:41;;;;;;;5.88;1.65;;;6.30;99.90;;;;;;5129166;27;20066;-63
2021/12/20 12:49:22;;;;;;;7.80;1.90;;;6.30;99.90;;;;;;5110755;27;20049;-62
2021/12/20 12:51:57;;;;;;;6.68;2.10;;;6.40;99.90;;;;;;5132134;27;20047;-63
2021/12/20 12:54:41;;;;;;;;;;;6.30;99.90;;;;;;5114168;27;20093;-62
2021/12/20 12:57:10;;;;;;;7.60;1.80;;;6.30;99.90;;;;;;5111911;27;19931;-63
2021/12/20 12:59:57;;;;;;;7.32;1.88;;;6.30;99.90;;;;;;5129526;27;20053;-62
2021/12/20 13:02:24;;;;;;;6.40;1.50;;;6.30;99.90;;;;;;5096984;27;20505;-63
2021/12/20 13:04:59;;;;;;;10.52;2.35;;;6.30;99.90;;;;;;5107813;27;20388;-63
2021/12/20 13:07:26;;;;;;;8.13;2.10;;;6.30;99.90;;;;;;5127020;27;20066;-63
2021/12/20 13:09:54;;;;;;;7.32;1.70;;;6.20;99.90;;;;;;5131884;27;20051;-64
2021/12/20 13:12:33;;;;;;;5.22;1.85;;;6.20;99.90;;;;;;5114857;27;20047;-63
2021/12/20 13:17:40;;;;;;;6.30;1.88;;;6.20;99.90;;;;;;5132075;27;20497;-63
2021/12/20 13:23:24;;;;;;;5.40;1.85;;;6.20;99.90;;;;;;5105337;27;20455;-63
2021/12/20 13:26:17;;;;;;;7.57;1.92;;;6.20;99.90;;;;;;5130539;27;20053;-66